»·PEaware :: N12683 KBFL-KMHV

N12683 :: KBFL-KMHV

FLIGHT INFORMATION

Flight Status: Arrived
Operator: Privately registered:
United States
More flights under this callsign
Pilot: Anonymous 22620 (22620)
Aircraft: CESSNA 172 SKYHAWK
(C172)
More flights by this aircraft type
Origin: KBFL Meadows
United States
Destination: KMHV Mojave
United States
More flights between these airports :: More routes between these airports
Route:
File this flight plan on PilotEdge
Remarks:
Altitude:
(Current/Filed)
7,500ft
Speed:
(Current/Filed)
110kts
Departed: 01-Nov-19 02:41 PM
Arrived: 01-Nov-19 03:24 PM
Distance/Time
Traveled:
50nm/0:43
Distance/Time
To Go:
Arrived

Flight Plot

Page will automatically refresh every two minutes.


Map Options




Map Legend


Flown Route
Filed Route
Departure Airport
Arrival Airport
Navaid (VOR, NDB)
Fix

Horizontal Profiles

Position Reports

Time Latitude Longitude Heading Altitude Ground
Speed
01-Nov-19 14:27 35.435702 -119.052043 179 509ft 0kts
01-Nov-19 14:28 35.435702 -119.052043 179 509ft 0kts
01-Nov-19 14:29 35.435702 -119.052043 179 509ft 0kts
01-Nov-19 14:30 35.435702 -119.052043 179 509ft 0kts
01-Nov-19 14:31 35.435702 -119.052043 179 509ft 0kts
01-Nov-19 14:32 35.435702 -119.052043 179 509ft 0kts
01-Nov-19 14:33 35.435702 -119.052043 179 509ft 0kts
01-Nov-19 14:34 35.435693 -119.052043 179 509ft 0kts
01-Nov-19 14:35 35.435012 -119.053973 227 509ft 6kts
01-Nov-19 14:36 35.432778 -119.052690 134 509ft 13kts
01-Nov-19 14:37 35.431567 -119.051999 184 509ft 0kts
01-Nov-19 14:38 35.431567 -119.051999 184 509ft 0kts
01-Nov-19 14:39 35.431253 -119.051988 173 509ft 7kts
01-Nov-19 14:40 35.436609 -119.059893 309 681ft 71kts
01-Nov-19 14:41 35.449093 -119.079537 321 1373ft 75kts
01-Nov-19 14:42 35.466928 -119.068846 90 1754ft 90kts
01-Nov-19 14:43 35.452240 -119.046457 136 2306ft 86kts
01-Nov-19 14:44 35.432461 -119.028268 146 2857ft 93kts
01-Nov-19 14:45 35.414506 -119.007420 121 3452ft 87kts
01-Nov-19 14:46 35.402798 -118.982277 114 4043ft 83kts
01-Nov-19 14:47 35.392904 -118.958566 113 4621ft 71kts
01-Nov-19 14:48 35.383969 -118.936713 113 5063ft 74kts
01-Nov-19 14:49 35.374480 -118.913573 113 5473ft 78kts
01-Nov-19 14:50 35.364479 -118.889209 113 5896ft 80kts
01-Nov-19 14:51 35.355073 -118.866298 112 6350ft 71kts
01-Nov-19 14:52 35.346136 -118.844427 112 6692ft 74kts
01-Nov-19 14:53 35.336737 -118.821555 112 6994ft 75kts
01-Nov-19 14:54 35.327224 -118.798444 113 7294ft 76kts
01-Nov-19 14:55 35.316830 -118.773200 113 7427ft 92kts
01-Nov-19 14:56 35.304972 -118.744493 113 7432ft 94kts
01-Nov-19 14:57 35.293504 -118.716646 113 7422ft 89kts
01-Nov-19 14:58 35.282127 -118.689013 113 7427ft 92kts
01-Nov-19 14:59 35.270451 -118.660695 113 7425ft 93kts
01-Nov-19 15:00 35.258770 -118.632397 113 7424ft 93kts
01-Nov-19 15:01 35.247121 -118.604216 113 7446ft 91kts
01-Nov-19 15:02 35.235619 -118.576407 113 7463ft 92kts
01-Nov-19 15:03 35.223907 -118.548162 113 7463ft 93kts
01-Nov-19 15:04 35.212169 -118.519773 113 7463ft 93kts
01-Nov-19 15:05 35.200350 -118.491266 113 7460ft 94kts
01-Nov-19 15:07 35.188579 -118.462897 113 7459ft 93kts
01-Nov-19 15:08 35.176917 -118.434815 113 7453ft 92kts
01-Nov-19 15:09 35.165201 -118.406683 112 7119ft 97kts
01-Nov-19 15:10 35.153098 -118.377588 112 6933ft 89kts
01-Nov-19 15:11 35.142261 -118.351535 112 6914ft 83kts
01-Nov-19 15:12 35.130261 -118.327949 134 6878ft 87kts
01-Nov-19 15:13 35.106894 -118.316439 163 6596ft 91kts
01-Nov-19 15:14 35.079804 -118.320276 206 6015ft 104kts
01-Nov-19 15:15 35.058979 -118.342927 247 5493ft 100kts
01-Nov-19 15:16 35.068267 -118.345777 107 5156ft 75kts
01-Nov-19 15:17 35.065635 -118.320708 100 5080ft 75kts
01-Nov-19 15:18 35.063006 -118.294372 95 4785ft 93kts
01-Nov-19 15:19 35.060971 -118.263907 96 4537ft 93kts
01-Nov-19 15:20 35.059554 -118.234361 87 4334ft 81kts
01-Nov-19 15:21 35.059339 -118.206831 90 4016ft 72kts
01-Nov-19 15:22 35.059318 -118.182253 90 3444ft 74kts
01-Nov-19 15:22 35.059184 -118.162151 88 2800ft 53kts
01-Nov-19 15:24 35.059207 -118.152057 90 2794ft 22kts
01-Nov-19 15:25 35.057586 -118.151596 271 2794ft 15kts
01-Nov-19 15:26 35.056865 -118.152617 80 2794ft 0kts
01-Nov-19 15:26 35.056865 -118.152617 80 2794ft 0kts
01-Nov-19 15:28 35.056865 -118.152617 80 2794ft 0kts

Navigation Log

Ident Type
Flight plan parsing failed, navigation log unavailable